Terminal Aerodrome Forecast
Issued by NWS Charleston, WV

Current Version | Previous Version | Graphics & Text | Print | Product List | Glossary On
Versions: 1 2 3 4 5 6 7 8 9 10 11 12 13 14 15 16 17 18 19 20 21 22 23
000
FTUS41 KRLX 152347
TAFEKN
TAF
KEKN 152347Z 1600/1624 22009G17KT P6SM BKN050
     FM160115 32012G22KT 3SM SHRA BKN015 OVC035
     FM160300 30008KT 6SM -SHRA BR OVC015
     FM160500 30008KT P6SM OVC010
     FM161500 31007KT P6SM BKN025=

USA.gov is the U.S. government's official web portal to all federal, state and local government web resources and services.